Terminal Aerodrome Forecast
Issued by NWS Chicago, IL

Home | Current Version | Previous Version | Text Only | Print | Product List | Glossary Off
Versions: 1 2 3 4 5 6 7 8 9 10 11 12 13 14 15 16 17 18 19 20 21 22 23 24 25 26 27 28 29 30 31 32 33 34

000
FTUS43 KLOT 281700 RRA
TAFRFD
TAF
KRFD 281755Z 2818/2918 16014G22KT P6SM BKN200
     FM282200 16016G24KT P6SM BKN100
     FM290400 18014G21KT P6SM SCT030 BKN100
     FM290800 23013KT 6SM -SHRA OVC010
     FM291500 33017G27KT P6SM OVC018=

USA.gov is the U.S. government's official web portal to all federal, state and local government web resources and services.